createdAt,value
2023-04-15T00:01:08.159Z,5.78
2023-04-15T00:03:36.419Z,5.28
2023-04-15T00:06:03.848Z,4.97
2023-04-15T00:08:31.163Z,5.95
2023-04-15T00:11:02.882Z,5.82
2023-04-15T00:13:30.350Z,6.22
2023-04-15T00:15:57.527Z,5.25
2023-04-15T00:18:25.149Z,5.37
2023-04-15T00:20:52.673Z,6.12
2023-04-15T00:23:19.824Z,5.68
2023-04-15T00:25:47.575Z,6.32
2023-04-15T00:28:14.699Z,7.30
2023-04-15T00:30:43.184Z,5.30
2023-04-15T00:33:10.710Z,9.73
2023-04-15T00:35:37.975Z,6.97
2023-04-15T00:38:06.100Z,7.30
2023-04-15T00:40:33.691Z,8.18
2023-04-15T00:43:01.144Z,5.45
2023-04-15T00:45:28.724Z,8.27
2023-04-15T00:47:56.873Z,6.40
2023-04-15T00:50:24.178Z,4.53
2023-04-15T00:52:51.969Z,6.72
2023-04-15T00:55:19.652Z,9.63
2023-04-15T00:57:46.991Z,15.73
2023-04-15T01:00:14.576Z,12.40
2023-04-15T01:02:42.326Z,10.15
2023-04-15T01:05:09.823Z,7.82
2023-04-15T01:07:37.093Z,8.88
2023-04-15T01:10:05.165Z,8.65
2023-04-15T01:12:33.143Z,6.45
2023-04-15T01:15:01.100Z,7.62
2023-04-15T01:17:28.630Z,8.68
2023-04-15T01:19:57.943Z,8.40
2023-04-15T01:22:26.786Z,9.38
2023-04-15T01:25:04.753Z,7.32
2023-04-15T01:27:32.847Z,9.93
2023-04-15T01:30:00.356Z,7.12
2023-04-15T01:32:28.096Z,6.32
2023-04-15T01:35:13.766Z,7.40
2023-04-15T01:37:48.395Z,9.93
2023-04-15T01:40:17.416Z,10.38
2023-04-15T01:42:46.636Z,9.70
2023-04-15T01:45:17.507Z,10.02
2023-04-15T01:47:46.207Z,8.32
2023-04-15T01:50:15.304Z,10.55
2023-04-15T01:52:43.676Z,11.77
2023-04-15T01:55:12.683Z,9.52
2023-04-15T01:57:41.225Z,11.15
2023-04-15T02:00:10.053Z,10.40
2023-04-15T02:02:41.730Z,12.13
2023-04-15T02:05:10.985Z,9.40
2023-04-15T02:07:39.446Z,9.77
2023-04-15T02:10:08.997Z,9.27
2023-04-15T02:12:37.757Z,11.35
2023-04-15T02:15:07.179Z,10.43
2023-04-15T02:17:37.416Z,10.35
2023-04-15T02:20:06.550Z,10.98
2023-04-15T02:22:35.218Z,8.13
2023-04-15T02:25:04.333Z,7.68
2023-04-15T02:27:33.719Z,7.40
2023-04-15T02:30:02.423Z,7.15
2023-04-15T02:32:31.265Z,8.32
2023-04-15T02:35:03.961Z,8.90
2023-04-15T02:37:32.566Z,7.65
2023-04-15T02:40:01.700Z,11.93
2023-04-15T02:42:31.907Z,8.15
2023-04-15T02:45:01.147Z,9.52
2023-04-15T02:47:30.366Z,10.15
2023-04-15T02:50:00.492Z,9.88
2023-04-15T02:52:31.174Z,10.68
2023-04-15T02:55:02.486Z,9.98
2023-04-15T02:57:31.221Z,7.80
2023-04-15T03:00:00.010Z,7.85
2023-04-15T03:02:34.336Z,9.88
2023-04-15T03:05:04.157Z,7.47
2023-04-15T03:07:32.599Z,9.20
2023-04-15T03:10:01.203Z,8.45
2023-04-15T03:12:30.415Z,8.23
2023-04-15T03:15:00.422Z,13.43
2023-04-15T03:17:29.691Z,8.40
2023-04-15T03:19:58.717Z,12.45
2023-04-15T03:22:27.210Z,9.85
2023-04-15T03:24:56.177Z,9.63
2023-04-15T03:27:25.524Z,9.05
2023-04-15T03:29:56.869Z,7.82
2023-04-15T03:32:27.176Z,7.55
2023-04-15T03:34:55.759Z,7.90
2023-04-15T03:37:24.165Z,6.25
2023-04-15T03:39:52.884Z,7.30
2023-04-15T03:42:21.289Z,6.93
2023-04-15T03:44:49.749Z,7.47
2023-04-15T03:47:18.525Z,6.18
2023-04-15T03:49:46.934Z,8.13
2023-04-15T03:52:15.468Z,5.40
2023-04-15T03:54:44.221Z,12.13
2023-04-15T03:57:12.746Z,27.48
2023-04-15T03:59:41.204Z,25.62
2023-04-15T04:02:09.979Z,15.82
2023-04-15T04:04:38.870Z,11.85
2023-04-15T04:07:07.323Z,9.82
2023-04-15T04:09:36.312Z,11.25
2023-04-15T04:12:05.067Z,9.10
2023-04-15T04:14:33.465Z,7.28
2023-04-15T04:17:02.022Z,8.68
2023-04-15T04:19:31.007Z,7.90
2023-04-15T04:21:59.417Z,8.77
2023-04-15T04:24:27.883Z,8.10
2023-04-15T04:26:57.303Z,13.30
2023-04-15T04:29:25.829Z,11.38
2023-04-15T04:31:54.234Z,6.53
2023-04-15T04:34:22.976Z,14.27
2023-04-15T04:36:51.603Z,7.62
2023-04-15T04:39:20.048Z,8.85
2023-04-15T04:41:48.871Z,7.20
2023-04-15T04:44:17.455Z,10.57
2023-04-15T04:46:45.905Z,6.82
2023-04-15T04:49:14.622Z,6.43
2023-04-15T04:51:43.197Z,6.40
2023-04-15T04:54:11.856Z,6.47
2023-04-15T04:56:41.045Z,19.23
2023-04-15T04:59:09.471Z,11.85
2023-04-15T05:01:38.027Z,7.05
2023-04-15T05:04:07.913Z,5.95
2023-04-15T05:06:36.845Z,5.97
2023-04-15T05:09:05.299Z,6.53
2023-04-15T05:11:33.990Z,5.40
2023-04-15T05:14:02.482Z,6.57
2023-04-15T05:16:30.922Z,7.35
2023-04-15T05:18:59.826Z,5.28
2023-04-15T05:21:28.333Z,8.00
2023-04-15T05:23:56.705Z,7.80
2023-04-15T05:26:25.711Z,10.30
2023-04-15T05:28:54.254Z,9.60
2023-04-15T05:31:22.885Z,6.78
2023-04-15T05:33:51.666Z,6.68
2023-04-15T05:36:20.075Z,7.80
2023-04-15T05:38:48.468Z,7.47
2023-04-15T05:41:19.705Z,5.30
2023-04-15T05:43:48.247Z,6.28
2023-04-15T05:46:17.015Z,7.40
2023-04-15T05:48:45.559Z,7.60
2023-04-15T05:51:14.025Z,5.07
2023-04-15T05:53:42.690Z,7.45
2023-04-15T05:56:11.032Z,6.93
2023-04-15T05:58:39.372Z,8.13
2023-04-15T06:01:07.978Z,5.62
2023-04-15T06:03:36.672Z,9.95
2023-04-15T06:06:05.130Z,8.73
2023-04-15T06:08:33.461Z,6.40
2023-04-15T06:11:02.126Z,6.43
2023-04-15T06:13:30.454Z,4.43
2023-04-15T06:15:58.999Z,5.70
2023-04-15T06:18:27.635Z,5.45
2023-04-15T06:20:56.053Z,6.60
2023-04-15T06:23:25.743Z,9.48
2023-04-15T06:25:55.056Z,6.75
2023-04-15T06:28:23.378Z,5.72
2023-04-15T06:30:51.687Z,6.93
2023-04-15T06:33:20.950Z,5.00
2023-04-15T06:35:49.746Z,4.93
2023-04-15T06:38:18.121Z,6.65
2023-04-15T06:40:46.718Z,5.37
2023-04-15T06:43:15.429Z,6.40
2023-04-15T06:45:43.838Z,5.37
2023-04-15T06:48:12.782Z,5.60
2023-04-15T06:50:41.374Z,6.22
2023-04-15T06:53:09.760Z,6.20
2023-04-15T06:55:38.452Z,6.18
2023-04-15T06:58:06.992Z,6.00
2023-04-15T07:00:35.648Z,4.50
2023-04-15T07:03:04.380Z,4.68
2023-04-15T07:05:33.517Z,3.78
2023-04-15T07:08:01.993Z,2.05
2023-04-15T07:10:30.653Z,3.50
2023-04-15T07:12:58.993Z,4.05
2023-04-15T07:15:27.473Z,5.80
2023-04-15T07:17:56.408Z,2.30
2023-04-15T07:20:24.968Z,4.47
2023-04-15T07:22:53.883Z,2.22
2023-04-15T07:25:22.849Z,4.10
2023-04-15T07:27:53.064Z,4.80
2023-04-15T07:30:21.491Z,5.40
2023-04-15T07:32:50.214Z,5.62
2023-04-15T07:35:21.133Z,5.78
2023-04-15T07:37:49.800Z,8.18
2023-04-15T07:40:18.189Z,5.82
2023-04-15T07:42:47.268Z,9.18
2023-04-15T07:45:16.277Z,5.82
2023-04-15T07:47:44.660Z,8.00
2023-04-15T07:50:13.040Z,7.00
2023-04-15T07:52:41.986Z,6.10
2023-04-15T07:55:10.796Z,5.43
2023-04-15T07:57:39.109Z,8.85
2023-04-15T08:00:08.396Z,8.80
2023-04-15T08:02:41.592Z,6.70
2023-04-15T08:05:10.860Z,8.23
2023-04-15T08:07:39.770Z,4.75
2023-04-15T08:10:08.736Z,20.80
2023-04-15T08:12:37.454Z,7.85
2023-04-15T08:15:08.156Z,3.72
2023-04-15T08:17:36.882Z,5.18
2023-04-15T08:20:05.957Z,4.85
2023-04-15T08:22:34.498Z,3.67
2023-04-15T08:25:03.905Z,2.70
2023-04-15T08:27:31.231Z,4.37
2023-04-15T08:29:59.647Z,3.58
2023-04-15T08:32:28.492Z,4.60
2023-04-15T08:34:56.924Z,3.37
2023-04-15T08:37:28.423Z,3.72
2023-04-15T08:39:57.070Z,3.22
2023-04-15T08:42:36.354Z,3.08
2023-04-15T08:45:05.849Z,4.20
2023-04-15T08:47:35.152Z,10.15
2023-04-15T08:50:04.428Z,3.70
2023-04-15T08:52:33.366Z,4.72
2023-04-15T08:55:03.405Z,5.90
2023-04-15T08:57:32.187Z,4.82
2023-04-15T09:00:05.363Z,9.75
2023-04-15T09:02:34.537Z,5.27
2023-04-15T09:05:06.506Z,5.22
2023-04-15T09:07:36.478Z,2.50
2023-04-15T09:10:05.577Z,4.07
2023-04-15T09:12:36.186Z,4.82
2023-04-15T09:15:05.420Z,3.65
2023-04-15T09:17:34.608Z,1.70
2023-04-15T09:20:13.678Z,10.65
2023-04-15T09:22:43.770Z,3.47
2023-04-15T09:25:15.108Z,4.75
2023-04-15T09:27:50.975Z,1.70
2023-04-15T09:30:19.363Z,1.23
2023-04-15T09:32:51.275Z,1.27
2023-04-15T09:35:26.495Z,1.33
2023-04-15T09:38:07.289Z,3.22
2023-04-15T09:40:36.507Z,2.33
2023-04-15T09:43:06.522Z,2.55
2023-04-15T09:45:36.459Z,3.87
2023-04-15T09:48:28.821Z,2.40
2023-04-15T09:51:01.369Z,0.80
2023-04-15T09:53:31.825Z,1.35
2023-04-15T09:56:02.369Z,0.50
2023-04-15T09:58:35.173Z,0.40
2023-04-15T10:01:05.134Z,1.00
2023-04-15T10:03:36.842Z,0.95
2023-04-15T10:06:08.382Z,1.15
2023-04-15T10:08:37.138Z,1.02
2023-04-15T10:11:06.435Z,0.73
2023-04-15T10:13:37.156Z,1.10
2023-04-15T10:16:10.852Z,0.60
2023-04-15T10:18:44.588Z,2.90
2023-04-15T10:21:16.447Z,1.67
2023-04-15T10:23:48.174Z,1.25
2023-04-15T10:26:17.744Z,1.60
2023-04-15T10:28:49.587Z,2.87
2023-04-15T10:31:18.608Z,1.37
2023-04-15T10:33:48.668Z,1.40
2023-04-15T10:36:19.109Z,5.57
2023-04-15T10:38:47.992Z,4.65
2023-04-15T10:41:26.831Z,1.80
2023-04-15T10:43:59.442Z,2.45
2023-04-15T10:46:41.184Z,8.10
2023-04-15T10:49:17.965Z,1.15
2023-04-15T10:51:51.162Z,1.62
2023-04-15T10:54:26.008Z,1.40
2023-04-15T10:57:01.507Z,1.45
2023-04-15T10:59:30.848Z,1.80
2023-04-15T11:02:08.719Z,3.92
2023-04-15T11:05:01.055Z,4.03
2023-04-15T11:07:35.706Z,3.17
2023-04-15T11:10:30.938Z,5.28
2023-04-15T11:15:42.523Z,5.05
2023-04-15T11:18:12.687Z,3.55
2023-04-15T11:21:03.451Z,4.95
2023-04-15T11:23:34.573Z,6.45
2023-04-15T11:26:12.425Z,2.30
2023-04-15T11:28:43.058Z,2.37
2023-04-15T11:31:14.110Z,2.62
2023-04-15T11:33:59.395Z,1.95
2023-04-15T11:36:30.171Z,1.75
2023-04-15T11:38:59.897Z,2.50
2023-04-15T11:41:28.626Z,2.15
2023-04-15T11:43:57.044Z,2.95
2023-04-15T11:46:32.030Z,3.62
2023-04-15T11:49:01.659Z,1.80
2023-04-15T11:51:33.759Z,1.35
2023-04-15T11:54:01.488Z,1.35
2023-04-15T11:56:28.874Z,1.95
2023-04-15T11:58:59.940Z,2.17
2023-04-15T12:01:44.004Z,3.17
2023-04-15T12:04:13.416Z,4.45
2023-04-15T12:06:41.356Z,2.00
2023-04-15T12:09:18.027Z,14.63
2023-04-15T12:11:55.234Z,4.40
2023-04-15T12:14:25.113Z,4.80
2023-04-15T12:16:55.213Z,3.70
2023-04-15T12:19:30.656Z,6.03
2023-04-15T12:22:03.311Z,4.03
2023-04-15T12:24:34.476Z,2.12
2023-04-15T12:27:06.903Z,3.80
2023-04-15T12:29:36.020Z,3.55
2023-04-15T12:32:13.082Z,6.07
2023-04-15T12:34:49.457Z,3.10
2023-04-15T12:37:16.975Z,3.78
2023-04-15T12:39:46.049Z,6.35
2023-04-15T12:42:13.174Z,8.10
2023-04-15T12:44:40.621Z,4.10
2023-04-15T12:47:09.321Z,1.45
2023-04-15T12:49:36.553Z,2.90
2023-04-15T12:52:04.740Z,3.12
2023-04-15T12:54:32.344Z,1.83
2023-04-15T12:57:00.028Z,1.55
2023-04-15T12:59:27.508Z,2.62
2023-04-15T13:01:54.931Z,4.18
2023-04-15T13:04:22.496Z,6.18
2023-04-15T13:06:50.162Z,3.42
2023-04-15T13:09:17.460Z,7.18
2023-04-15T13:11:44.693Z,5.00
2023-04-15T13:14:13.102Z,15.23
2023-04-15T13:16:40.876Z,2.62
2023-04-15T13:19:08.372Z,4.12
2023-04-15T13:21:36.362Z,13.32
2023-04-15T13:24:04.940Z,3.85
2023-04-15T13:26:32.886Z,9.98
2023-04-15T13:29:01.311Z,4.80
2023-04-15T13:31:28.755Z,5.70
2023-04-15T13:33:57.069Z,1.37
2023-04-15T13:36:24.598Z,1.80
2023-04-15T13:38:52.061Z,2.25
2023-04-15T13:41:20.101Z,2.62
2023-04-15T13:43:47.593Z,4.30
2023-04-15T13:46:14.960Z,1.25
2023-04-15T13:48:42.375Z,3.05
2023-04-15T13:51:09.921Z,1.30
2023-04-15T13:53:38.972Z,4.05
2023-04-15T13:56:08.102Z,3.62
2023-04-15T13:58:36.704Z,3.53
2023-04-15T14:01:05.780Z,5.55
2023-04-15T14:03:36.082Z,2.58
2023-04-15T14:06:03.771Z,4.72
2023-04-15T14:08:31.691Z,18.05
2023-04-15T14:10:59.104Z,2.08
2023-04-15T14:13:26.216Z,3.05
2023-04-15T14:15:53.364Z,3.50
2023-04-15T14:18:23.538Z,6.20
2023-04-15T14:20:50.654Z,5.57
2023-04-15T14:23:17.828Z,2.92
2023-04-15T14:25:47.908Z,5.07
2023-04-15T14:28:15.782Z,3.37
2023-04-15T14:30:43.133Z,4.80
2023-04-15T14:33:10.575Z,3.78
2023-04-15T14:35:37.998Z,5.05
2023-04-15T14:38:06.145Z,4.53
2023-04-15T14:40:33.775Z,15.82
2023-04-15T14:43:00.902Z,7.68
2023-04-15T14:45:28.067Z,8.45
2023-04-15T14:47:55.959Z,6.78
2023-04-15T14:50:23.376Z,16.25
2023-04-15T14:52:50.522Z,4.18
2023-04-15T14:55:17.922Z,4.93
2023-04-15T14:57:45.039Z,33.42
2023-04-15T15:00:15.834Z,6.05
2023-04-15T15:02:44.011Z,3.92
2023-04-15T15:05:11.995Z,3.95
2023-04-15T15:07:40.955Z,5.82
2023-04-15T15:10:09.089Z,3.00
2023-04-15T15:12:36.535Z,5.80
2023-04-15T15:15:12.218Z,6.05
2023-04-15T15:17:47.489Z,6.65
2023-04-15T15:20:14.673Z,4.15
2023-04-15T15:22:41.800Z,5.72
2023-04-15T15:25:09.274Z,5.28
2023-04-15T15:27:38.225Z,6.72
2023-04-15T15:30:06.901Z,8.77
2023-04-15T15:32:34.590Z,31.12
2023-04-15T15:35:01.736Z,9.07
2023-04-15T15:37:30.880Z,14.63
2023-04-15T15:39:58.314Z,9.18
2023-04-15T15:42:25.552Z,10.02
2023-04-15T15:44:55.956Z,8.45
2023-04-15T15:47:23.564Z,9.55
2023-04-15T15:49:50.754Z,20.88
2023-04-15T15:52:19.337Z,23.10
2023-04-15T15:54:47.230Z,6.50
2023-04-15T15:57:14.431Z,5.22
2023-04-15T15:59:43.713Z,9.30
2023-04-15T16:02:12.732Z,8.25
2023-04-15T16:04:41.632Z,5.95
2023-04-15T16:07:10.625Z,5.72
2023-04-15T16:09:38.003Z,4.85
2023-04-15T16:12:05.524Z,7.57
2023-04-15T16:14:32.717Z,6.68
2023-04-15T16:16:59.873Z,7.65
2023-04-15T16:19:27.314Z,9.70
2023-04-15T16:21:54.948Z,14.43
2023-04-15T16:24:22.116Z,7.30
2023-04-15T16:26:49.527Z,7.30
2023-04-15T16:29:16.656Z,5.32
2023-04-15T16:31:43.798Z,3.45
2023-04-15T16:34:12.008Z,2.15
2023-04-15T16:36:40.583Z,3.30
2023-04-15T16:39:07.835Z,5.07
2023-04-15T16:41:35.407Z,7.00
2023-04-15T16:44:03.347Z,6.43
2023-04-15T16:46:31.626Z,6.28
2023-04-15T16:48:59.198Z,6.03
2023-04-15T16:51:27.350Z,4.15
2023-04-15T16:53:54.534Z,3.55
2023-04-15T16:56:22.137Z,4.53
2023-04-15T16:58:49.353Z,5.50
2023-04-15T17:01:16.801Z,6.50
2023-04-15T17:03:44.556Z,7.35
2023-04-15T17:06:12.143Z,3.47
2023-04-15T17:08:40.183Z,3.62
2023-04-15T17:11:07.693Z,3.30
2023-04-15T17:13:34.938Z,5.47
2023-04-15T17:16:02.477Z,3.15
2023-04-15T17:18:38.126Z,4.00
2023-04-15T17:21:13.234Z,2.40
2023-04-15T17:23:42.280Z,3.92
2023-04-15T17:26:09.858Z,15.63
2023-04-15T17:28:37.181Z,30.62
2023-04-15T17:31:08.079Z,34.67
2023-04-15T17:34:05.064Z,31.15
2023-04-15T17:36:37.095Z,35.17
2023-04-15T17:39:27.377Z,31.48
2023-04-15T17:42:15.674Z,33.60
2023-04-15T17:45:02.850Z,32.88
2023-04-15T17:47:50.324Z,30.88
2023-04-15T17:50:38.518Z,39.13
2023-04-15T17:53:26.099Z,27.17
2023-04-15T17:56:13.118Z,63.87
2023-04-15T17:59:02.477Z,71.47
2023-04-15T18:01:49.913Z,51.03
2023-04-15T18:04:37.528Z,47.83
2023-04-15T18:07:24.705Z,52.40
2023-04-15T18:10:12.149Z,30.33
2023-04-15T18:12:59.434Z,47.08
2023-04-15T18:15:48.666Z,50.15
2023-04-15T18:18:35.899Z,34.50
2023-04-15T18:21:03.392Z,27.02
2023-04-15T18:23:30.520Z,24.35
2023-04-15T18:25:58.166Z,20.65
2023-04-15T18:28:25.645Z,31.50
2023-04-15T18:30:53.623Z,33.53
2023-04-15T18:33:20.979Z,39.50
2023-04-15T18:35:49.974Z,28.33
2023-04-15T18:38:17.337Z,29.02
2023-04-15T18:40:44.443Z,31.52
2023-04-15T18:43:14.359Z,23.48
2023-04-15T18:45:41.601Z,29.37
2023-04-15T18:48:08.816Z,26.12
2023-04-15T18:50:36.386Z,25.48
2023-04-15T18:53:03.565Z,30.92
2023-04-15T18:55:31.373Z,20.65
2023-04-15T18:58:07.569Z,21.87
2023-04-15T19:00:40.342Z,20.88
2023-04-15T19:03:08.177Z,18.80
2023-04-15T19:05:36.042Z,22.85
2023-04-15T19:08:03.226Z,32.65
2023-04-15T19:10:30.693Z,33.92
2023-04-15T19:12:57.861Z,68.10
2023-04-15T19:15:25.184Z,48.40
2023-04-15T19:17:54.296Z,51.58
2023-04-15T19:20:22.900Z,93.40
2023-04-15T19:22:50.066Z,92.47
2023-04-15T19:25:17.563Z,47.03
2023-04-15T19:27:44.748Z,60.47
2023-04-15T19:30:12.121Z,155.07
2023-04-15T19:32:39.768Z,80.87
2023-04-15T19:35:08.320Z,36.70
2023-04-15T19:37:36.534Z,26.52
2023-04-15T19:40:04.769Z,26.05
2023-04-15T19:42:31.932Z,25.40
2023-04-15T19:44:59.138Z,23.65
2023-04-15T19:47:28.012Z,23.42
2023-04-15T19:49:55.382Z,15.52
2023-04-15T19:52:22.615Z,18.75
2023-04-15T19:54:50.177Z,13.38
2023-04-15T19:57:17.423Z,13.25
2023-04-15T19:59:44.620Z,12.70
2023-04-15T20:02:12.583Z,13.60
2023-04-15T20:04:40.268Z,16.98
2023-04-15T20:07:07.553Z,19.17
2023-04-15T20:09:34.765Z,17.55
2023-04-15T20:12:46.792Z,19.60
2023-04-15T20:14:49.510Z,23.25
2023-04-15T20:17:17.095Z,19.95
2023-04-15T20:19:44.316Z,26.08
2023-04-15T20:22:11.498Z,21.33
2023-04-15T20:24:38.993Z,15.98
2023-04-15T20:27:06.186Z,11.75
2023-04-15T20:29:33.599Z,17.35
2023-04-15T20:32:01.213Z,19.85
2023-04-15T20:34:28.439Z,16.65
2023-04-15T20:36:55.823Z,13.90
2023-04-15T20:39:23.336Z,14.87
2023-04-15T20:41:50.752Z,9.18
2023-04-15T20:44:17.984Z,10.45
2023-04-15T20:46:45.743Z,8.55
2023-04-15T20:49:12.910Z,10.73
2023-04-15T20:51:40.058Z,13.60
2023-04-15T20:54:07.446Z,16.33
2023-04-15T20:56:34.610Z,13.73
2023-04-15T20:59:01.779Z,15.32
2023-04-15T21:01:29.298Z,15.10
2023-04-15T21:03:56.572Z,13.27
2023-04-15T21:06:23.689Z,12.93
2023-04-15T21:08:52.448Z,11.80
2023-04-15T21:11:38.850Z,12.43
2023-04-15T21:14:08.434Z,16.83
2023-04-15T21:16:35.753Z,13.13
2023-04-15T21:19:03.237Z,12.20
2023-04-15T21:21:31.977Z,29.52
2023-04-15T21:23:59.613Z,55.67
2023-04-15T21:26:26.799Z,33.53
2023-04-15T21:28:54.287Z,18.52
2023-04-15T21:31:22.115Z,22.10
2023-04-15T21:33:49.606Z,12.13
2023-04-15T21:36:17.076Z,9.65
2023-04-15T21:38:44.315Z,12.63
2023-04-15T21:41:11.525Z,11.32
2023-04-15T21:43:38.998Z,12.65
2023-04-15T21:46:22.695Z,11.68
2023-04-15T21:48:53.570Z,12.50
2023-04-15T21:51:20.867Z,11.32
2023-04-15T21:53:48.255Z,13.50
2023-04-15T21:56:15.873Z,21.08
2023-04-15T21:58:43.165Z,18.05
2023-04-15T22:01:10.515Z,15.02
2023-04-15T22:03:38.166Z,10.55
2023-04-15T22:06:05.506Z,10.18
2023-04-15T22:08:38.654Z,13.70
2023-04-15T22:11:29.600Z,14.20
2023-04-15T22:13:58.320Z,12.73
2023-04-15T22:16:26.545Z,13.73
2023-04-15T22:18:54.739Z,12.13
2023-04-15T22:21:22.160Z,13.60
2023-04-15T22:23:49.871Z,12.32
2023-04-15T22:26:16.955Z,13.00
2023-04-15T22:28:44.173Z,13.75
2023-04-15T22:31:11.665Z,14.20
2023-04-15T22:33:39.006Z,10.68
2023-04-15T22:36:06.401Z,12.02
2023-04-15T22:38:33.916Z,12.27
2023-04-15T22:41:01.239Z,13.02
2023-04-15T22:43:28.435Z,13.07
2023-04-15T22:45:56.691Z,13.15
2023-04-15T22:48:24.033Z,11.70
2023-04-15T22:50:51.324Z,11.38
2023-04-15T22:53:19.025Z,12.68
2023-04-15T22:55:49.591Z,13.55
2023-04-15T22:58:18.354Z,17.62
2023-04-15T23:00:45.934Z,17.60
2023-04-15T23:03:13.267Z,14.30
2023-04-15T23:05:41.233Z,17.23
2023-04-15T23:08:08.825Z,19.70
2023-04-15T23:10:35.949Z,20.48
2023-04-15T23:13:03.080Z,18.98
2023-04-15T23:15:30.540Z,20.83
2023-04-15T23:17:57.678Z,22.25
2023-04-15T23:20:24.888Z,19.65
2023-04-15T23:22:52.313Z,21.37
2023-04-15T23:25:22.245Z,21.52
2023-04-15T23:27:49.546Z,25.23
2023-04-15T23:30:17.036Z,20.05
2023-04-15T23:32:44.347Z,22.48
2023-04-15T23:35:11.680Z,20.33
2023-04-15T23:37:39.161Z,21.35
2023-04-15T23:40:07.052Z,21.42
2023-04-15T23:42:34.239Z,20.20
2023-04-15T23:45:01.858Z,18.73
2023-04-15T23:47:30.934Z,16.60
2023-04-15T23:49:58.022Z,17.02
2023-04-15T23:52:25.456Z,17.62
2023-04-15T23:54:52.586Z,17.35
2023-04-15T23:57:19.796Z,21.00
2023-04-15T23:59:47.261Z,16.17
